Olm, Luxembourg
Current Conditions -  °F | °C
As of 7:50 AM on Sunday 26 Oct 2014 (Local Time) from ELLX Reporting Station
Haze Haze  
Wind Chill: 45°   Ceiling: 3700
Heat Index: 45°   Visibility: 1.5mi
Dew Point: 45°   Wind: 2mph
Humidity: 100%   Direction: NA
Pressure: 30.27"   Gusts: NA
Location:  49.66°N, 6°E
Report Text: ELLX 260550Z VRB02KT 2500 R24/0900VP1500N BR SCT001 BKN037 07/07 Q1025 NOSIG
Loading
Personal Weather Stations






























Interactive Weather Map
Tropical Storm Tracking
New forecast layout! Learn more

10-Day Weather Forecast

Advertisements
Track Severe Weather on mobile